sensor_id;sensor_type;location;lat;lon;timestamp;P1;durP1;ratioP1;P2;durP2;ratioP2
24635;SDS011;12772;49.794;10.024;2022-11-15T00:00:28;5.38;;;3.00;;
24635;SDS011;12772;49.794;10.024;2022-11-15T00:04:30;3.22;;;2.88;;
24635;SDS011;12772;49.794;10.024;2022-11-15T00:08:32;5.20;;;3.67;;
24635;SDS011;12772;49.794;10.024;2022-11-15T00:12:37;4.35;;;3.50;;
24635;SDS011;12772;49.794;10.024;2022-11-15T00:16:40;7.38;;;4.72;;
24635;SDS011;12772;49.794;10.024;2022-11-15T00:20:42;6.15;;;4.35;;
24635;SDS011;12772;49.794;10.024;2022-11-15T00:24:44;4.00;;;3.53;;
24635;SDS011;12772;49.794;10.024;2022-11-15T00:28:46;5.07;;;3.95;;
24635;SDS011;12772;49.794;10.024;2022-11-15T00:32:48;7.78;;;5.07;;
24635;SDS011;12772;49.794;10.024;2022-11-15T00:36:50;6.88;;;4.97;;
24635;SDS011;12772;49.794;10.024;2022-11-15T00:40:52;5.25;;;4.43;;
24635;SDS011;12772;49.794;10.024;2022-11-15T00:44:54;4.18;;;3.88;;
24635;SDS011;12772;49.794;10.024;2022-11-15T00:48:56;4.72;;;3.75;;
24635;SDS011;12772;49.794;10.024;2022-11-15T00:52:58;4.75;;;3.75;;
24635;SDS011;12772;49.794;10.024;2022-11-15T00:57:00;3.60;;;3.30;;
24635;SDS011;12772;49.794;10.024;2022-11-15T01:01:06;4.63;;;3.78;;
24635;SDS011;12772;49.794;10.024;2022-11-15T01:05:10;3.50;;;3.20;;
24635;SDS011;12772;49.794;10.024;2022-11-15T01:09:12;3.60;;;3.30;;
24635;SDS011;12772;49.794;10.024;2022-11-15T01:13:14;4.93;;;3.80;;
24635;SDS011;12772;49.794;10.024;2022-11-15T01:17:16;3.53;;;3.22;;
24635;SDS011;12772;49.794;10.024;2022-11-15T01:21:19;3.97;;;3.60;;
24635;SDS011;12772;49.794;10.024;2022-11-15T01:25:21;5.15;;;3.67;;
24635;SDS011;12772;49.794;10.024;2022-11-15T01:29:23;4.63;;;3.38;;
24635;SDS011;12772;49.794;10.024;2022-11-15T01:33:25;4.28;;;3.55;;
24635;SDS011;12772;49.794;10.024;2022-11-15T01:37:27;3.80;;;3.38;;
24635;SDS011;12772;49.794;10.024;2022-11-15T01:41:30;6.03;;;3.50;;
24635;SDS011;12772;49.794;10.024;2022-11-15T01:45:33;4.75;;;3.72;;
24635;SDS011;12772;49.794;10.024;2022-11-15T01:49:36;3.50;;;3.20;;
24635;SDS011;12772;49.794;10.024;2022-11-15T01:53:41;3.78;;;3.33;;
24635;SDS011;12772;49.794;10.024;2022-11-15T01:57:50;3.85;;;3.50;;
24635;SDS011;12772;49.794;10.024;2022-11-15T02:01:54;4.25;;;3.00;;
24635;SDS011;12772;49.794;10.024;2022-11-15T02:05:57;4.00;;;3.22;;
24635;SDS011;12772;49.794;10.024;2022-11-15T02:10:01;3.65;;;3.17;;
24635;SDS011;12772;49.794;10.024;2022-11-15T02:14:16;4.97;;;3.45;;
24635;SDS011;12772;49.794;10.024;2022-11-15T02:18:25;5.57;;;3.25;;
24635;SDS011;12772;49.794;10.024;2022-11-15T02:23:01;4.93;;;3.85;;
24635;SDS011;12772;49.794;10.024;2022-11-15T02:31:48;5.13;;;4.63;;
24635;SDS011;12772;49.794;10.024;2022-11-15T02:44:31;4.32;;;3.95;;
24635;SDS011;12772;49.794;10.024;2022-11-15T02:48:38;4.43;;;4.03;;
24635;SDS011;12772;49.794;10.024;2022-11-15T02:52:40;4.32;;;3.83;;
24635;SDS011;12772;49.794;10.024;2022-11-15T02:56:46;5.57;;;3.90;;
24635;SDS011;12772;49.794;10.024;2022-11-15T03:13:56;5.40;;;4.25;;
24635;SDS011;12772;49.794;10.024;2022-11-15T03:18:02;4.72;;;4.20;;
24635;SDS011;12772;49.794;10.024;2022-11-15T03:22:14;5.50;;;3.88;;
24635;SDS011;12772;49.794;10.024;2022-11-15T03:26:19;4.20;;;3.90;;
24635;SDS011;12772;49.794;10.024;2022-11-15T03:30:25;5.25;;;4.43;;
24635;SDS011;12772;49.794;10.024;2022-11-15T03:34:38;4.55;;;3.88;;
24635;SDS011;12772;49.794;10.024;2022-11-15T03:38:53;4.63;;;4.20;;
24635;SDS011;12772;49.794;10.024;2022-11-15T03:43:02;5.97;;;4.07;;
24635;SDS011;12772;49.794;10.024;2022-11-15T03:51:37;3.53;;;3.33;;
24635;SDS011;12772;49.794;10.024;2022-11-15T03:55:40;3.70;;;3.40;;
24635;SDS011;12772;49.794;10.024;2022-11-15T03:59:42;5.97;;;4.30;;
24635;SDS011;12772;49.794;10.024;2022-11-15T04:03:44;4.28;;;3.88;;
24635;SDS011;12772;49.794;10.024;2022-11-15T04:07:46;4.10;;;3.70;;
24635;SDS011;12772;49.794;10.024;2022-11-15T04:11:48;4.93;;;3.67;;
24635;SDS011;12772;49.794;10.024;2022-11-15T04:15:51;4.32;;;3.85;;
24635;SDS011;12772;49.794;10.024;2022-11-15T04:19:53;4.53;;;3.60;;
24635;SDS011;12772;49.794;10.024;2022-11-15T04:24:13;6.15;;;3.67;;
24635;SDS011;12772;49.794;10.024;2022-11-15T04:28:15;7.05;;;4.38;;
24635;SDS011;12772;49.794;10.024;2022-11-15T04:32:17;4.78;;;3.67;;
24635;SDS011;12772;49.794;10.024;2022-11-15T04:36:19;4.65;;;3.67;;
24635;SDS011;12772;49.794;10.024;2022-11-15T04:40:39;3.83;;;3.53;;
24635;SDS011;12772;49.794;10.024;2022-11-15T04:44:41;4.32;;;3.63;;
24635;SDS011;12772;49.794;10.024;2022-11-15T04:48:43;4.72;;;4.32;;
24635;SDS011;12772;49.794;10.024;2022-11-15T04:52:52;4.20;;;3.85;;
24635;SDS011;12772;49.794;10.024;2022-11-15T04:56:55;4.13;;;3.55;;
24635;SDS011;12772;49.794;10.024;2022-11-15T05:00:57;4.15;;;3.70;;
24635;SDS011;12772;49.794;10.024;2022-11-15T05:04:59;4.72;;;4.32;;
24635;SDS011;12772;49.794;10.024;2022-11-15T05:09:01;4.85;;;4.35;;
24635;SDS011;12772;49.794;10.024;2022-11-15T05:13:03;4.07;;;3.78;;
24635;SDS011;12772;49.794;10.024;2022-11-15T05:17:05;4.50;;;4.10;;
24635;SDS011;12772;49.794;10.024;2022-11-15T05:21:10;4.80;;;4.30;;
24635;SDS011;12772;49.794;10.024;2022-11-15T05:25:13;5.55;;;4.13;;
24635;SDS011;12772;49.794;10.024;2022-11-15T05:29:15;4.22;;;3.83;;
24635;SDS011;12772;49.794;10.024;2022-11-15T05:33:17;4.85;;;4.45;;
24635;SDS011;12772;49.794;10.024;2022-11-15T05:37:20;5.97;;;4.70;;
24635;SDS011;12772;49.794;10.024;2022-11-15T05:41:25;5.18;;;4.75;;
24635;SDS011;12772;49.794;10.024;2022-11-15T05:45:37;4.75;;;4.35;;
24635;SDS011;12772;49.794;10.024;2022-11-15T05:49:39;6.55;;;5.65;;
24635;SDS011;12772;49.794;10.024;2022-11-15T05:53:43;6.95;;;5.05;;
24635;SDS011;12772;49.794;10.024;2022-11-15T05:57:46;7.32;;;5.70;;
24635;SDS011;12772;49.794;10.024;2022-11-15T06:01:48;5.22;;;4.82;;
24635;SDS011;12772;49.794;10.024;2022-11-15T06:05:50;7.30;;;5.18;;
24635;SDS011;12772;49.794;10.024;2022-11-15T06:09:52;5.35;;;4.80;;
24635;SDS011;12772;49.794;10.024;2022-11-15T06:13:54;4.82;;;4.43;;
24635;SDS011;12772;49.794;10.024;2022-11-15T06:17:57;6.22;;;4.78;;
24635;SDS011;12772;49.794;10.024;2022-11-15T06:22:00;6.13;;;5.32;;
24635;SDS011;12772;49.794;10.024;2022-11-15T06:26:02;6.43;;;4.95;;
24635;SDS011;12772;49.794;10.024;2022-11-15T06:30:05;6.70;;;5.50;;
24635;SDS011;12772;49.794;10.024;2022-11-15T06:34:07;8.27;;;5.30;;
24635;SDS011;12772;49.794;10.024;2022-11-15T06:38:10;5.45;;;4.90;;
24635;SDS011;12772;49.794;10.024;2022-11-15T06:42:12;6.45;;;5.38;;
24635;SDS011;12772;49.794;10.024;2022-11-15T06:46:14;5.78;;;4.90;;
24635;SDS011;12772;49.794;10.024;2022-11-15T06:50:16;8.40;;;5.30;;
24635;SDS011;12772;49.794;10.024;2022-11-15T06:54:18;9.13;;;5.70;;
24635;SDS011;12772;49.794;10.024;2022-11-15T06:58:21;6.85;;;5.30;;
24635;SDS011;12772;49.794;10.024;2022-11-15T07:02:23;9.10;;;5.72;;
24635;SDS011;12772;49.794;10.024;2022-11-15T07:06:25;8.32;;;5.18;;
24635;SDS011;12772;49.794;10.024;2022-11-15T07:10:27;5.93;;;5.35;;
24635;SDS011;12772;49.794;10.024;2022-11-15T07:14:30;7.53;;;5.35;;
24635;SDS011;12772;49.794;10.024;2022-11-15T07:18:35;6.35;;;5.30;;
24635;SDS011;12772;49.794;10.024;2022-11-15T07:22:39;6.40;;;4.75;;
24635;SDS011;12772;49.794;10.024;2022-11-15T07:26:42;5.53;;;4.90;;
24635;SDS011;12772;49.794;10.024;2022-11-15T07:30:44;5.25;;;4.75;;
24635;SDS011;12772;49.794;10.024;2022-11-15T07:34:46;6.32;;;4.30;;
24635;SDS011;12772;49.794;10.024;2022-11-15T07:38:48;7.05;;;4.20;;
24635;SDS011;12772;49.794;10.024;2022-11-15T07:42:50;4.47;;;4.07;;
24635;SDS011;12772;49.794;10.024;2022-11-15T07:46:56;4.72;;;4.15;;
24635;SDS011;12772;49.794;10.024;2022-11-15T07:50:58;5.20;;;4.55;;
24635;SDS011;12772;49.794;10.024;2022-11-15T07:55:00;7.50;;;5.25;;
24635;SDS011;12772;49.794;10.024;2022-11-15T07:59:03;6.00;;;4.47;;
24635;SDS011;12772;49.794;10.024;2022-11-15T08:03:06;6.35;;;5.30;;
24635;SDS011;12772;49.794;10.024;2022-11-15T08:07:12;5.68;;;4.63;;
24635;SDS011;12772;49.794;10.024;2022-11-15T08:11:14;6.50;;;4.93;;
24635;SDS011;12772;49.794;10.024;2022-11-15T08:15:16;6.18;;;4.75;;
24635;SDS011;12772;49.794;10.024;2022-11-15T08:19:18;6.45;;;4.55;;
24635;SDS011;12772;49.794;10.024;2022-11-15T08:23:20;6.82;;;5.60;;
24635;SDS011;12772;49.794;10.024;2022-11-15T08:27:22;7.05;;;5.32;;
24635;SDS011;12772;49.794;10.024;2022-11-15T08:31:24;5.28;;;4.53;;
24635;SDS011;12772;49.794;10.024;2022-11-15T08:35:26;4.95;;;4.55;;
24635;SDS011;12772;49.794;10.024;2022-11-15T08:39:29;7.07;;;4.90;;
24635;SDS011;12772;49.794;10.024;2022-11-15T08:43:31;8.77;;;5.43;;
24635;SDS011;12772;49.794;10.024;2022-11-15T08:47:33;6.57;;;5.95;;
24635;SDS011;12772;49.794;10.024;2022-11-15T08:51:36;6.97;;;5.53;;
24635;SDS011;12772;49.794;10.024;2022-11-15T08:55:39;9.02;;;6.13;;
24635;SDS011;12772;49.794;10.024;2022-11-15T08:59:42;5.78;;;4.80;;
24635;SDS011;12772;49.794;10.024;2022-11-15T09:03:44;7.05;;;6.03;;
24635;SDS011;12772;49.794;10.024;2022-11-15T09:07:46;6.78;;;5.55;;
24635;SDS011;12772;49.794;10.024;2022-11-15T09:11:48;7.68;;;5.70;;
24635;SDS011;12772;49.794;10.024;2022-11-15T09:15:51;6.28;;;5.45;;
24635;SDS011;12772;49.794;10.024;2022-11-15T09:19:53;8.82;;;6.07;;
24635;SDS011;12772;49.794;10.024;2022-11-15T09:23:55;8.88;;;6.20;;
24635;SDS011;12772;49.794;10.024;2022-11-15T09:27:57;7.50;;;6.00;;
24635;SDS011;12772;49.794;10.024;2022-11-15T09:31:59;6.05;;;4.78;;
24635;SDS011;12772;49.794;10.024;2022-11-15T09:36:05;6.82;;;5.45;;
24635;SDS011;12772;49.794;10.024;2022-11-15T09:40:09;6.68;;;5.18;;
24635;SDS011;12772;49.794;10.024;2022-11-15T09:48:58;7.25;;;4.78;;
24635;SDS011;12772;49.794;10.024;2022-11-15T09:53:01;4.72;;;4.32;;
24635;SDS011;12772;49.794;10.024;2022-11-15T10:01:08;4.30;;;3.90;;
24635;SDS011;12772;49.794;10.024;2022-11-15T10:05:21;4.93;;;4.53;;
24635;SDS011;12772;49.794;10.024;2022-11-15T10:09:36;4.97;;;4.45;;
24635;SDS011;12772;49.794;10.024;2022-11-15T10:13:43;5.03;;;4.53;;
24635;SDS011;12772;49.794;10.024;2022-11-15T10:26:22;4.72;;;4.20;;
24635;SDS011;12772;49.794;10.024;2022-11-15T10:30:35;5.30;;;4.30;;
24635;SDS011;12772;49.794;10.024;2022-11-15T10:34:42;4.82;;;4.43;;
24635;SDS011;12772;49.794;10.024;2022-11-15T10:51:40;5.07;;;4.18;;
24635;SDS011;12772;49.794;10.024;2022-11-15T10:55:50;4.93;;;4.45;;
24635;SDS011;12772;49.794;10.024;2022-11-15T10:59:56;5.93;;;4.40;;
24635;SDS011;12772;49.794;10.024;2022-11-15T11:04:13;4.78;;;4.18;;
24635;SDS011;12772;49.794;10.024;2022-11-15T11:12:18;5.38;;;4.85;;
24635;SDS011;12772;49.794;10.024;2022-11-15T11:16:41;5.35;;;4.40;;
24635;SDS011;12772;49.794;10.024;2022-11-15T11:20:53;5.65;;;5.05;;
24635;SDS011;12772;49.794;10.024;2022-11-15T11:25:10;4.68;;;4.18;;
24635;SDS011;12772;49.794;10.024;2022-11-15T11:30:03;7.88;;;4.25;;
24635;SDS011;12772;49.794;10.024;2022-11-15T11:34:09;4.43;;;4.03;;
24635;SDS011;12772;49.794;10.024;2022-11-15T11:46:53;5.15;;;4.68;;
24635;SDS011;12772;49.794;10.024;2022-11-15T11:50:59;4.63;;;4.22;;
24635;SDS011;12772;49.794;10.024;2022-11-15T11:55:26;5.00;;;4.60;;
24635;SDS011;12772;49.794;10.024;2022-11-15T11:59:53;4.53;;;4.13;;
24635;SDS011;12772;49.794;10.024;2022-11-15T12:04:17;5.25;;;4.75;;
24635;SDS011;12772;49.794;10.024;2022-11-15T12:12:53;7.88;;;4.88;;
24635;SDS011;12772;49.794;10.024;2022-11-15T12:17:02;4.93;;;4.25;;
24635;SDS011;12772;49.794;10.024;2022-11-15T12:21:07;6.35;;;4.43;;
24635;SDS011;12772;49.794;10.024;2022-11-15T12:26:04;5.88;;;4.45;;
24635;SDS011;12772;49.794;10.024;2022-11-15T12:29:46;5.35;;;4.30;;
24635;SDS011;12772;49.794;10.024;2022-11-15T12:33:55;7.82;;;5.78;;
24635;SDS011;12772;49.794;10.024;2022-11-15T12:37:58;5.22;;;4.15;;
24635;SDS011;12772;49.794;10.024;2022-11-15T12:46:05;6.45;;;4.68;;
24635;SDS011;12772;49.794;10.024;2022-11-15T12:50:52;5.20;;;4.65;;
24635;SDS011;12772;49.794;10.024;2022-11-15T12:54:55;6.28;;;5.13;;
24635;SDS011;12772;49.794;10.024;2022-11-15T12:58:59;5.50;;;5.00;;
24635;SDS011;12772;49.794;10.024;2022-11-15T13:03:21;6.90;;;5.68;;
24635;SDS011;12772;49.794;10.024;2022-11-15T13:11:46;8.30;;;5.63;;
24635;SDS011;12772;49.794;10.024;2022-11-15T13:15:56;6.45;;;5.38;;
24635;SDS011;12772;49.794;10.024;2022-11-15T13:20:07;6.22;;;5.25;;
24635;SDS011;12772;49.794;10.024;2022-11-15T13:24:14;6.40;;;5.25;;
24635;SDS011;12772;49.794;10.024;2022-11-15T13:28:20;11.30;;;5.22;;
24635;SDS011;12772;49.794;10.024;2022-11-15T13:32:28;5.85;;;5.28;;
24635;SDS011;12772;49.794;10.024;2022-11-15T13:36:31;6.35;;;5.55;;
24635;SDS011;12772;49.794;10.024;2022-11-15T13:40:35;6.88;;;5.65;;
24635;SDS011;12772;49.794;10.024;2022-11-15T13:44:38;6.90;;;5.18;;
24635;SDS011;12772;49.794;10.024;2022-11-15T13:48:40;6.45;;;5.63;;
24635;SDS011;12772;49.794;10.024;2022-11-15T13:52:43;7.13;;;5.65;;
24635;SDS011;12772;49.794;10.024;2022-11-15T13:56:48;5.90;;;5.03;;
24635;SDS011;12772;49.794;10.024;2022-11-15T14:01:00;9.32;;;5.45;;
24635;SDS011;12772;49.794;10.024;2022-11-15T14:05:17;6.63;;;5.55;;
24635;SDS011;12772;49.794;10.024;2022-11-15T14:13:31;7.43;;;5.40;;
24635;SDS011;12772;49.794;10.024;2022-11-15T14:17:35;5.95;;;5.13;;
24635;SDS011;12772;49.794;10.024;2022-11-15T14:22:07;6.25;;;4.68;;
24635;SDS011;12772;49.794;10.024;2022-11-15T14:26:28;6.05;;;5.20;;
24635;SDS011;12772;49.794;10.024;2022-11-15T14:30:32;6.95;;;5.18;;
24635;SDS011;12772;49.794;10.024;2022-11-15T14:34:34;5.72;;;4.95;;
24635;SDS011;12772;49.794;10.024;2022-11-15T14:38:36;5.55;;;4.82;;
24635;SDS011;12772;49.794;10.024;2022-11-15T14:42:38;7.63;;;5.20;;
24635;SDS011;12772;49.794;10.024;2022-11-15T14:46:40;5.45;;;4.38;;
24635;SDS011;12772;49.794;10.024;2022-11-15T14:50:42;10.13;;;5.05;;
24635;SDS011;12772;49.794;10.024;2022-11-15T14:54:45;5.70;;;4.82;;
24635;SDS011;12772;49.794;10.024;2022-11-15T14:58:47;5.97;;;4.63;;
24635;SDS011;12772;49.794;10.024;2022-11-15T15:02:50;6.80;;;4.45;;
24635;SDS011;12772;49.794;10.024;2022-11-15T15:06:55;4.60;;;4.18;;
24635;SDS011;12772;49.794;10.024;2022-11-15T15:10:57;6.63;;;4.60;;
24635;SDS011;12772;49.794;10.024;2022-11-15T15:15:00;6.85;;;4.90;;
24635;SDS011;12772;49.794;10.024;2022-11-15T15:19:02;5.55;;;4.60;;
24635;SDS011;12772;49.794;10.024;2022-11-15T15:23:04;8.23;;;5.10;;
24635;SDS011;12772;49.794;10.024;2022-11-15T15:27:06;6.50;;;5.75;;
24635;SDS011;12772;49.794;10.024;2022-11-15T15:31:09;8.98;;;7.07;;
24635;SDS011;12772;49.794;10.024;2022-11-15T15:35:12;7.47;;;6.78;;
24635;SDS011;12772;49.794;10.024;2022-11-15T15:39:15;7.43;;;6.63;;
24635;SDS011;12772;49.794;10.024;2022-11-15T15:43:17;7.30;;;6.30;;
24635;SDS011;12772;49.794;10.024;2022-11-15T15:47:22;14.50;;;9.25;;
24635;SDS011;12772;49.794;10.024;2022-11-15T15:51:25;8.98;;;7.35;;
24635;SDS011;12772;49.794;10.024;2022-11-15T15:55:27;8.20;;;7.22;;
24635;SDS011;12772;49.794;10.024;2022-11-15T15:59:29;7.90;;;7.07;;
24635;SDS011;12772;49.794;10.024;2022-11-15T16:03:31;7.40;;;6.05;;
24635;SDS011;12772;49.794;10.024;2022-11-15T16:07:33;7.45;;;6.20;;
24635;SDS011;12772;49.794;10.024;2022-11-15T16:11:35;9.52;;;6.82;;
24635;SDS011;12772;49.794;10.024;2022-11-15T16:15:37;8.95;;;6.78;;
24635;SDS011;12772;49.794;10.024;2022-11-15T16:19:39;7.78;;;6.70;;
24635;SDS011;12772;49.794;10.024;2022-11-15T16:23:41;7.82;;;6.05;;
24635;SDS011;12772;49.794;10.024;2022-11-15T16:27:43;9.23;;;6.88;;
24635;SDS011;12772;49.794;10.024;2022-11-15T16:31:46;7.93;;;5.68;;
24635;SDS011;12772;49.794;10.024;2022-11-15T16:35:48;7.78;;;5.40;;
24635;SDS011;12772;49.794;10.024;2022-11-15T16:39:50;5.95;;;5.32;;
24635;SDS011;12772;49.794;10.024;2022-11-15T16:43:53;7.13;;;5.65;;
24635;SDS011;12772;49.794;10.024;2022-11-15T16:47:55;7.78;;;6.07;;
24635;SDS011;12772;49.794;10.024;2022-11-15T16:51:58;5.55;;;5.05;;
24635;SDS011;12772;49.794;10.024;2022-11-15T16:56:00;8.57;;;6.97;;
24635;SDS011;12772;49.794;10.024;2022-11-15T17:00:02;7.10;;;6.40;;
24635;SDS011;12772;49.794;10.024;2022-11-15T17:04:05;8.85;;;6.90;;
24635;SDS011;12772;49.794;10.024;2022-11-15T17:08:12;8.05;;;6.97;;
24635;SDS011;12772;49.794;10.024;2022-11-15T17:12:14;7.72;;;5.53;;
24635;SDS011;12772;49.794;10.024;2022-11-15T17:16:16;7.40;;;6.63;;
24635;SDS011;12772;49.794;10.024;2022-11-15T17:20:20;7.22;;;5.40;;
24635;SDS011;12772;49.794;10.024;2022-11-15T17:24:23;7.47;;;5.20;;
24635;SDS011;12772;49.794;10.024;2022-11-15T17:28:25;8.88;;;5.72;;
24635;SDS011;12772;49.794;10.024;2022-11-15T17:32:28;10.00;;;6.35;;
24635;SDS011;12772;49.794;10.024;2022-11-15T17:36:30;6.55;;;5.18;;
24635;SDS011;12772;49.794;10.024;2022-11-15T17:40:32;6.32;;;5.03;;
24635;SDS011;12772;49.794;10.024;2022-11-15T17:44:34;5.65;;;5.15;;
24635;SDS011;12772;49.794;10.024;2022-11-15T17:48:36;5.13;;;4.70;;
24635;SDS011;12772;49.794;10.024;2022-11-15T17:52:38;5.90;;;4.82;;
24635;SDS011;12772;49.794;10.024;2022-11-15T17:56:40;5.18;;;4.68;;
24635;SDS011;12772;49.794;10.024;2022-11-15T18:00:46;4.90;;;4.45;;
24635;SDS011;12772;49.794;10.024;2022-11-15T18:04:48;6.15;;;5.35;;
24635;SDS011;12772;49.794;10.024;2022-11-15T18:08:51;7.55;;;4.90;;
24635;SDS011;12772;49.794;10.024;2022-11-15T18:12:55;6.25;;;4.28;;
24635;SDS011;12772;49.794;10.024;2022-11-15T18:16:57;5.68;;;4.28;;
24635;SDS011;12772;49.794;10.024;2022-11-15T18:21:12;4.53;;;4.05;;
24635;SDS011;12772;49.794;10.024;2022-11-15T18:25:17;5.18;;;4.68;;
24635;SDS011;12772;49.794;10.024;2022-11-15T18:29:20;4.97;;;4.32;;
24635;SDS011;12772;49.794;10.024;2022-11-15T18:33:23;5.22;;;4.13;;
24635;SDS011;12772;49.794;10.024;2022-11-15T18:37:26;5.35;;;3.97;;
24635;SDS011;12772;49.794;10.024;2022-11-15T18:41:28;6.90;;;4.55;;
24635;SDS011;12772;49.794;10.024;2022-11-15T18:45:33;4.70;;;4.30;;
24635;SDS011;12772;49.794;10.024;2022-11-15T18:49:35;4.82;;;4.43;;
24635;SDS011;12772;49.794;10.024;2022-11-15T18:53:37;4.85;;;4.35;;
24635;SDS011;12772;49.794;10.024;2022-11-15T18:57:40;5.88;;;4.25;;
24635;SDS011;12772;49.794;10.024;2022-11-15T19:01:43;4.75;;;4.35;;
24635;SDS011;12772;49.794;10.024;2022-11-15T19:05:47;6.00;;;4.53;;
24635;SDS011;12772;49.794;10.024;2022-11-15T19:09:49;12.20;;;7.05;;
24635;SDS011;12772;49.794;10.024;2022-11-15T19:13:52;8.10;;;6.05;;
24635;SDS011;12772;49.794;10.024;2022-11-15T19:17:55;8.23;;;5.80;;
24635;SDS011;12772;49.794;10.024;2022-11-15T19:21:57;8.98;;;6.28;;
24635;SDS011;12772;49.794;10.024;2022-11-15T19:25:59;8.68;;;5.68;;
24635;SDS011;12772;49.794;10.024;2022-11-15T19:30:03;11.20;;;6.75;;
24635;SDS011;12772;49.794;10.024;2022-11-15T19:34:06;14.48;;;7.57;;
24635;SDS011;12772;49.794;10.024;2022-11-15T19:38:08;7.13;;;5.35;;
24635;SDS011;12772;49.794;10.024;2022-11-15T19:42:10;10.20;;;6.45;;
24635;SDS011;12772;49.794;10.024;2022-11-15T19:46:13;7.38;;;5.05;;
24635;SDS011;12772;49.794;10.024;2022-11-15T19:50:15;11.73;;;4.95;;
24635;SDS011;12772;49.794;10.024;2022-11-15T19:54:18;7.07;;;5.70;;
24635;SDS011;12772;49.794;10.024;2022-11-15T19:58:20;4.88;;;4.43;;
24635;SDS011;12772;49.794;10.024;2022-11-15T20:02:23;5.25;;;4.50;;
24635;SDS011;12772;49.794;10.024;2022-11-15T20:06:29;6.90;;;5.28;;
24635;SDS011;12772;49.794;10.024;2022-11-15T20:10:33;6.00;;;5.38;;
24635;SDS011;12772;49.794;10.024;2022-11-15T20:14:35;8.27;;;6.05;;
24635;SDS011;12772;49.794;10.024;2022-11-15T20:18:37;22.80;;;9.40;;
24635;SDS011;12772;49.794;10.024;2022-11-15T20:22:39;20.48;;;10.70;;
24635;SDS011;12772;49.794;10.024;2022-11-15T20:26:41;16.50;;;7.88;;
24635;SDS011;12772;49.794;10.024;2022-11-15T20:30:43;12.95;;;7.15;;
24635;SDS011;12772;49.794;10.024;2022-11-15T20:34:47;9.05;;;7.20;;
24635;SDS011;12772;49.794;10.024;2022-11-15T20:38:49;7.07;;;5.40;;
24635;SDS011;12772;49.794;10.024;2022-11-15T20:42:51;6.90;;;5.68;;
24635;SDS011;12772;49.794;10.024;2022-11-15T20:46:54;6.43;;;4.85;;
24635;SDS011;12772;49.794;10.024;2022-11-15T20:51:03;7.05;;;5.22;;
24635;SDS011;12772;49.794;10.024;2022-11-15T20:55:07;5.53;;;4.97;;
24635;SDS011;12772;49.794;10.024;2022-11-15T20:59:09;6.35;;;4.85;;
24635;SDS011;12772;49.794;10.024;2022-11-15T21:03:12;5.85;;;5.22;;
24635;SDS011;12772;49.794;10.024;2022-11-15T21:07:14;5.70;;;4.93;;
24635;SDS011;12772;49.794;10.024;2022-11-15T21:11:16;6.05;;;5.43;;
24635;SDS011;12772;49.794;10.024;2022-11-15T21:15:38;8.40;;;5.65;;
24635;SDS011;12772;49.794;10.024;2022-11-15T21:19:41;7.18;;;5.60;;
24635;SDS011;12772;49.794;10.024;2022-11-15T21:23:43;6.07;;;5.47;;
24635;SDS011;12772;49.794;10.024;2022-11-15T21:27:45;6.07;;;5.47;;
24635;SDS011;12772;49.794;10.024;2022-11-15T21:31:48;6.00;;;5.40;;
24635;SDS011;12772;49.794;10.024;2022-11-15T21:35:52;7.10;;;5.95;;
24635;SDS011;12772;49.794;10.024;2022-11-15T21:39:55;10.98;;;5.25;;
24635;SDS011;12772;49.794;10.024;2022-11-15T21:43:57;5.80;;;5.28;;
24635;SDS011;12772;49.794;10.024;2022-11-15T21:48:00;5.97;;;5.47;;
24635;SDS011;12772;49.794;10.024;2022-11-15T21:52:02;5.40;;;4.72;;
24635;SDS011;12772;49.794;10.024;2022-11-15T21:56:04;5.15;;;4.75;;
24635;SDS011;12772;49.794;10.024;2022-11-15T22:00:07;5.38;;;4.88;;
24635;SDS011;12772;49.794;10.024;2022-11-15T22:04:27;6.57;;;5.00;;
24635;SDS011;12772;49.794;10.024;2022-11-15T22:08:29;6.75;;;5.20;;
24635;SDS011;12772;49.794;10.024;2022-11-15T22:12:31;5.35;;;4.95;;
24635;SDS011;12772;49.794;10.024;2022-11-15T22:16:33;5.65;;;5.15;;
24635;SDS011;12772;49.794;10.024;2022-11-15T22:20:37;5.93;;;5.32;;
24635;SDS011;12772;49.794;10.024;2022-11-15T22:24:39;6.70;;;6.00;;
24635;SDS011;12772;49.794;10.024;2022-11-15T22:28:41;6.35;;;5.68;;
24635;SDS011;12772;49.794;10.024;2022-11-15T22:32:43;6.75;;;6.05;;
24635;SDS011;12772;49.794;10.024;2022-11-15T22:36:46;5.55;;;5.05;;
24635;SDS011;12772;49.794;10.024;2022-11-15T22:40:48;6.95;;;6.25;;
24635;SDS011;12772;49.794;10.024;2022-11-15T22:44:50;6.72;;;6.03;;
24635;SDS011;12772;49.794;10.024;2022-11-15T22:48:52;6.53;;;5.93;;
24635;SDS011;12772;49.794;10.024;2022-11-15T22:52:55;7.03;;;6.25;;
24635;SDS011;12772;49.794;10.024;2022-11-15T22:56:57;8.65;;;5.43;;
24635;SDS011;12772;49.794;10.024;2022-11-15T23:01:00;5.70;;;5.20;;
24635;SDS011;12772;49.794;10.024;2022-11-15T23:05:03;6.65;;;5.97;;
24635;SDS011;12772;49.794;10.024;2022-11-15T23:09:06;6.35;;;5.75;;
24635;SDS011;12772;49.794;10.024;2022-11-15T23:13:11;6.90;;;6.03;;
24635;SDS011;12772;49.794;10.024;2022-11-15T23:17:16;6.47;;;5.55;;
24635;SDS011;12772;49.794;10.024;2022-11-15T23:21:19;6.90;;;5.88;;
24635;SDS011;12772;49.794;10.024;2022-11-15T23:25:56;6.82;;;6.07;;
24635;SDS011;12772;49.794;10.024;2022-11-15T23:29:59;9.65;;;6.07;;
24635;SDS011;12772;49.794;10.024;2022-11-15T23:34:19;5.95;;;5.38;;
24635;SDS011;12772;49.794;10.024;2022-11-15T23:38:21;8.85;;;6.63;;
24635;SDS011;12772;49.794;10.024;2022-11-15T23:42:23;7.22;;;5.95;;
24635;SDS011;12772;49.794;10.024;2022-11-15T23:46:25;6.80;;;5.45;;
24635;SDS011;12772;49.794;10.024;2022-11-15T23:50:27;7.10;;;6.32;;
24635;SDS011;12772;49.794;10.024;2022-11-15T23:54:32;6.05;;;5.55;;
24635;SDS011;12772;49.794;10.024;2022-11-15T23:58:34;6.90;;;6.30;;
